createdAt,value
2019-01-22T00:06:42.130Z,19.70
2019-01-22T00:20:04.854Z,19.60
2019-01-22T00:47:02.690Z,19.60
2019-01-22T01:00:09.919Z,19.50
2019-01-22T01:13:17.064Z,19.50
2019-01-22T01:26:24.230Z,19.40
2019-01-22T01:39:31.367Z,19.40
2019-01-22T01:52:55.416Z,19.40
2019-01-22T02:06:18.215Z,19.30
2019-01-22T02:19:41.061Z,19.30
2019-01-22T02:33:03.876Z,19.40
2019-01-22T02:46:26.668Z,19.40
2019-01-22T02:59:49.486Z,19.40
2019-01-22T03:26:14.039Z,19.30
2019-01-22T03:39:21.158Z,19.30
2019-01-22T03:52:28.319Z,19.30
2019-01-22T04:05:35.523Z,19.30
2019-01-22T04:18:42.721Z,19.20
2019-01-22T04:31:49.853Z,19.20
2019-01-22T04:45:13.686Z,19.20
2019-01-22T04:58:36.533Z,19.20
2019-01-22T05:11:59.342Z,19.20
2019-01-22T05:25:22.143Z,19.20
2019-01-22T05:38:45.006Z,19.10
2019-01-22T05:52:07.792Z,19.10
2019-01-22T06:05:30.614Z,19.10
2019-01-22T06:18:53.408Z,19.10
2019-01-22T06:32:16.246Z,19.20
2019-01-22T06:45:39.067Z,19.00
2019-01-22T06:59:01.868Z,19.00
2019-01-22T07:25:26.347Z,19.00
2019-01-22T07:38:33.451Z,19.20
2019-01-22T07:51:40.558Z,19.90
2019-01-22T08:04:47.741Z,19.70
2019-01-22T08:17:54.855Z,19.80
2019-01-22T08:31:01.996Z,19.90
2019-01-22T08:44:27.888Z,19.70
2019-01-22T08:57:48.942Z,19.60
2019-01-22T09:11:11.761Z,19.60
2019-01-22T09:24:34.539Z,19.60
2019-01-22T09:37:57.347Z,19.70
2019-01-22T09:51:20.158Z,19.80
2019-01-22T10:04:43.018Z,19.80
2019-01-22T10:18:05.809Z,19.50
2019-01-22T10:31:28.628Z,19.80
2019-01-22T10:44:51.427Z,20.00
2019-01-22T10:58:14.262Z,20.40
2019-01-22T11:11:37.074Z,20.30
2019-01-22T11:24:59.906Z,20.40
2019-01-22T11:38:22.724Z,20.50
2019-01-22T11:51:45.681Z,20.50
2019-01-22T12:05:08.321Z,20.50
2019-01-22T12:18:31.189Z,20.20
2019-01-22T12:31:53.957Z,20.40
2019-01-22T12:45:16.812Z,20.40
2019-01-22T12:58:39.572Z,20.70
2019-01-22T13:12:02.419Z,22.40
2019-01-22T13:25:25.216Z,21.20
2019-01-22T13:38:48.041Z,20.70
2019-01-22T13:52:10.870Z,20.60
2019-01-22T14:05:28.886Z,20.50
2019-01-22T14:18:35.992Z,20.50
2019-01-22T14:31:43.147Z,20.70
2019-01-22T14:44:50.281Z,20.70
2019-01-22T14:57:57.424Z,20.50
2019-01-22T15:11:04.631Z,20.40
2019-01-22T15:24:28.692Z,20.40
2019-01-22T15:37:51.478Z,20.10
2019-01-22T15:51:14.319Z,20.30
2019-01-22T16:04:37.128Z,20.40
2019-01-22T16:17:59.894Z,20.20
2019-01-22T16:31:22.742Z,20.30
2019-01-22T16:44:45.570Z,20.50
2019-01-22T16:58:08.367Z,20.50
2019-01-22T17:11:31.190Z,20.60
2019-01-22T17:24:54.017Z,20.70
2019-01-22T17:38:16.813Z,20.90
2019-01-22T17:51:39.624Z,20.90
2019-01-22T18:05:02.412Z,20.20
2019-01-22T18:18:25.254Z,20.60
2019-01-22T18:31:48.124Z,20.50
2019-01-22T18:45:10.883Z,20.20
2019-01-22T18:58:33.726Z,20.30
2019-01-22T19:11:56.524Z,20.30
2019-01-22T19:25:19.353Z,20.40
2019-01-22T19:38:42.127Z,18.80
2019-01-22T19:52:04.946Z,20.00
2019-01-22T20:05:27.794Z,20.60
2019-01-22T20:18:50.634Z,20.80
2019-01-22T20:32:13.388Z,20.70
2019-01-22T20:45:36.238Z,20.70
2019-01-22T20:58:59.053Z,20.70
2019-01-22T21:12:21.859Z,20.70
2019-01-22T21:25:44.657Z,20.60
2019-01-22T21:39:07.483Z,20.40
2019-01-22T21:52:30.303Z,20.20
2019-01-22T22:05:53.205Z,20.20
2019-01-22T22:19:15.954Z,20.20
2019-01-22T22:32:38.763Z,20.00
2019-01-22T22:46:01.579Z,20.10
2019-01-22T22:59:24.367Z,20.10
2019-01-22T23:12:47.195Z,19.90
2019-01-22T23:26:10.057Z,20.00
2019-01-22T23:39:32.854Z,20.00
2019-01-22T23:52:55.701Z,19.90
